createdAt,value
2017-09-11T00:01:09.080Z,82.50
2017-09-11T00:03:36.577Z,85.00
2017-09-11T00:06:04.806Z,85.60
2017-09-11T00:08:32.291Z,85.60
2017-09-11T00:10:59.768Z,86.20
2017-09-11T00:13:27.229Z,86.20
2017-09-11T00:15:55.490Z,85.50
2017-09-11T00:18:22.940Z,85.40
2017-09-11T00:20:50.462Z,84.50
2017-09-11T00:23:17.923Z,84.60
2017-09-11T00:25:45.419Z,83.50
2017-09-11T00:28:12.898Z,83.60
2017-09-11T00:30:41.118Z,85.40
2017-09-11T00:33:08.606Z,85.40
2017-09-11T00:35:36.066Z,87.80
2017-09-11T00:38:03.528Z,88.30
2017-09-11T00:40:31.048Z,87.50
2017-09-11T00:42:58.518Z,86.50
2017-09-11T00:45:26.029Z,86.30
2017-09-11T00:47:54.350Z,88.80
2017-09-11T00:50:21.815Z,88.80
2017-09-11T00:52:49.287Z,89.20
2017-09-11T00:55:16.786Z,89.70
2017-09-11T00:57:45.060Z,89.50
2017-09-11T01:00:13.275Z,89.10
2017-09-11T01:02:40.735Z,89.10
2017-09-11T01:05:08.231Z,89.40
2017-09-11T01:07:36.511Z,88.20
2017-09-11T01:10:04.789Z,87.40
2017-09-11T01:12:32.254Z,87.30
2017-09-11T01:15:00.524Z,87.60
2017-09-11T01:17:28.768Z,88.60
2017-09-11T01:19:56.238Z,88.60
2017-09-11T01:22:23.728Z,89.10
2017-09-11T01:24:51.955Z,89.70
2017-09-11T01:27:19.459Z,89.70
2017-09-11T01:29:47.706Z,88.40
2017-09-11T01:32:15.182Z,88.30
2017-09-11T01:34:43.446Z,87.60
2017-09-11T01:37:10.939Z,87.60
2017-09-11T01:39:39.162Z,86.70
2017-09-11T01:42:06.655Z,86.70
2017-09-11T01:44:34.894Z,86.70
2017-09-11T01:47:02.371Z,86.70
2017-09-11T01:49:29.887Z,88.00
2017-09-11T01:51:57.362Z,89.10
2017-09-11T01:54:24.883Z,89.60
2017-09-11T01:56:53.111Z,90.00
2017-09-11T01:59:20.609Z,90.00
2017-09-11T02:01:48.866Z,89.40
2017-09-11T02:04:16.372Z,89.40
2017-09-11T02:06:43.868Z,89.60
2017-09-11T02:09:11.339Z,90.00
2017-09-11T02:11:38.831Z,89.70
2017-09-11T02:14:06.335Z,89.10
2017-09-11T02:16:33.839Z,88.90
2017-09-11T02:19:02.078Z,89.40
2017-09-11T02:21:29.526Z,89.30
2017-09-11T02:23:57.022Z,88.70
2017-09-11T02:26:25.256Z,88.40
2017-09-11T02:28:52.734Z,88.40
2017-09-11T02:31:20.221Z,88.60
2017-09-11T02:33:48.487Z,88.10
2017-09-11T02:36:16.735Z,87.80
2017-09-11T02:38:44.193Z,87.80
2017-09-11T02:41:11.688Z,87.90
2017-09-11T02:43:39.928Z,88.50
2017-09-11T02:46:07.433Z,88.50
2017-09-11T02:48:35.657Z,89.40
2017-09-11T02:51:03.158Z,89.40
2017-09-11T02:53:31.395Z,89.80
2017-09-11T02:55:58.875Z,89.80
2017-09-11T02:58:26.367Z,90.00
2017-09-11T03:00:54.624Z,90.00
2017-09-11T03:03:22.901Z,89.90
2017-09-11T03:05:50.350Z,89.80
2017-09-11T03:08:17.854Z,90.10
2017-09-11T03:10:45.336Z,90.00
2017-09-11T03:13:12.847Z,90.00
2017-09-11T03:15:41.074Z,89.40
2017-09-11T03:18:08.527Z,89.40
2017-09-11T03:20:36.019Z,89.20
2017-09-11T03:23:03.486Z,88.90
2017-09-11T03:25:31.008Z,88.60
2017-09-11T03:27:58.499Z,88.90
2017-09-11T03:30:25.976Z,88.90
2017-09-11T03:32:54.277Z,89.90
2017-09-11T03:35:21.763Z,89.90
2017-09-11T03:37:49.213Z,89.90
2017-09-11T03:40:16.700Z,89.60
2017-09-11T03:42:44.187Z,89.50
2017-09-11T03:45:12.444Z,89.50
2017-09-11T03:47:39.922Z,89.50
2017-09-11T03:50:08.179Z,89.00
2017-09-11T03:52:35.663Z,89.00
2017-09-11T03:55:03.896Z,88.70
2017-09-11T03:57:31.422Z,88.70
2017-09-11T03:59:58.887Z,89.30
2017-09-11T04:02:26.375Z,89.40
2017-09-11T04:04:53.870Z,89.70
2017-09-11T04:07:22.120Z,89.70
2017-09-11T04:09:49.815Z,89.70
2017-09-11T04:12:17.286Z,89.60
2017-09-11T04:14:44.790Z,89.30
2017-09-11T04:17:12.267Z,88.70
2017-09-11T04:19:39.743Z,88.40
2017-09-11T04:22:08.028Z,88.00
2017-09-11T04:24:36.256Z,88.10
2017-09-11T04:27:03.743Z,88.10
2017-09-11T04:29:31.983Z,87.90
2017-09-11T04:31:59.466Z,87.90
2017-09-11T04:34:26.972Z,88.20
2017-09-11T04:36:54.439Z,88.50
2017-09-11T04:39:21.938Z,88.60
2017-09-11T04:41:49.427Z,88.80
2017-09-11T04:44:17.659Z,89.00
2017-09-11T04:46:45.170Z,88.90
2017-09-11T04:49:13.406Z,88.10
2017-09-11T04:51:40.886Z,88.10
2017-09-11T04:54:09.120Z,89.10
2017-09-11T04:56:36.630Z,89.10
2017-09-11T04:59:04.864Z,88.60
2017-09-11T05:01:32.336Z,88.60
2017-09-11T05:03:59.847Z,88.20
2017-09-11T05:06:27.316Z,88.40
2017-09-11T05:08:54.820Z,88.50
2017-09-11T05:11:22.320Z,89.20
2017-09-11T05:13:49.817Z,88.70
2017-09-11T05:16:17.297Z,88.80
2017-09-11T05:18:44.795Z,89.10
2017-09-11T05:21:12.330Z,88.70
2017-09-11T05:23:40.562Z,88.10
2017-09-11T05:26:08.069Z,88.10
2017-09-11T05:28:36.302Z,88.70
2017-09-11T05:31:03.787Z,88.70
2017-09-11T05:33:31.298Z,90.20
2017-09-11T05:35:58.780Z,90.10
2017-09-11T05:38:26.281Z,85.70
2017-09-11T05:40:54.519Z,84.50
2017-09-11T05:43:22.012Z,84.50
2017-09-11T05:45:50.268Z,83.40
2017-09-11T05:48:17.777Z,83.30
2017-09-11T05:50:45.257Z,79.10
2017-09-11T05:53:12.758Z,77.60
2017-09-11T05:55:41.027Z,77.20
2017-09-11T05:58:09.270Z,77.40
2017-09-11T06:00:36.767Z,77.40
2017-09-11T06:03:04.259Z,77.00
2017-09-11T06:05:31.726Z,79.50
2017-09-11T06:07:59.426Z,78.60
2017-09-11T06:10:26.885Z,79.10
2017-09-11T06:12:54.351Z,81.00
2017-09-11T06:15:21.857Z,79.90
2017-09-11T06:17:49.350Z,80.10
2017-09-11T06:20:16.839Z,78.20
2017-09-11T06:22:45.068Z,79.30
2017-09-11T06:25:12.557Z,79.20
2017-09-11T06:27:40.041Z,81.00
2017-09-11T06:30:08.315Z,87.10
2017-09-11T06:32:36.578Z,88.60
2017-09-11T06:35:04.091Z,88.60
2017-09-11T06:37:31.607Z,89.00
2017-09-11T06:39:59.075Z,89.50
2017-09-11T06:42:27.314Z,89.80
2017-09-11T06:44:54.811Z,89.80
2017-09-11T06:47:23.045Z,90.40
2017-09-11T06:49:50.550Z,90.40
2017-09-11T06:52:18.792Z,90.20
2017-09-11T06:54:46.265Z,90.20
2017-09-11T06:57:13.767Z,90.60
2017-09-11T06:59:41.271Z,90.50
2017-09-11T07:02:08.767Z,90.40
2017-09-11T07:04:37.031Z,88.70
2017-09-11T07:07:05.989Z,90.50
2017-09-11T07:09:33.486Z,90.50
2017-09-11T07:12:13.587Z,87.30
2017-09-11T07:14:41.099Z,87.30
2017-09-11T07:17:09.348Z,88.80
2017-09-11T07:19:36.814Z,88.80
2017-09-11T07:22:04.319Z,89.30
2017-09-11T07:24:31.799Z,86.90
2017-09-11T07:26:59.289Z,80.80
2017-09-11T07:29:26.803Z,77.40
2017-09-11T07:31:54.351Z,75.60
2017-09-11T07:34:21.817Z,73.90
2017-09-11T07:36:49.285Z,74.30
2017-09-11T07:39:16.802Z,73.50
2017-09-11T07:41:44.272Z,76.40
2017-09-11T07:44:11.755Z,75.20
2017-09-11T07:46:39.241Z,73.00
2017-09-11T07:49:06.742Z,72.60
2017-09-11T07:51:34.959Z,73.60
2017-09-11T07:54:02.422Z,73.50
2017-09-11T07:56:29.923Z,70.70
2017-09-11T07:58:58.154Z,71.10
2017-09-11T08:01:25.677Z,71.00
2017-09-11T08:03:53.904Z,70.10
2017-09-11T08:06:21.381Z,70.00
2017-09-11T08:08:48.895Z,71.80
2017-09-11T08:11:16.378Z,71.70
2017-09-11T08:13:43.888Z,70.80
2017-09-11T08:16:12.119Z,71.60
2017-09-11T08:18:39.589Z,71.60
2017-09-11T08:21:07.076Z,71.20
2017-09-11T08:23:35.346Z,71.50
2017-09-11T08:26:03.593Z,71.20
2017-09-11T08:28:31.058Z,71.10
2017-09-11T08:30:58.573Z,70.60
2017-09-11T08:33:26.048Z,72.10
2017-09-11T08:35:53.518Z,70.80
2017-09-11T08:38:21.035Z,70.80
2017-09-11T08:40:48.501Z,70.30
2017-09-11T08:43:15.970Z,71.30
2017-09-11T08:45:43.489Z,71.50
2017-09-11T08:48:11.705Z,70.80
2017-09-11T08:50:39.227Z,70.60
2017-09-11T08:53:07.467Z,69.30
2017-09-11T08:55:34.974Z,69.20
2017-09-11T08:58:02.454Z,70.70
2017-09-11T09:00:29.929Z,69.90
2017-09-11T09:02:57.430Z,71.10
2017-09-11T09:05:25.701Z,69.90
2017-09-11T09:07:53.210Z,69.90
2017-09-11T09:10:21.076Z,68.80
2017-09-11T09:12:48.538Z,69.80
2017-09-11T09:15:16.028Z,69.30
2017-09-11T09:17:43.511Z,68.50
2017-09-11T09:20:11.767Z,68.70
2017-09-11T09:22:39.237Z,68.60
2017-09-11T09:25:07.500Z,67.70
2017-09-11T09:27:34.999Z,67.60
2017-09-11T09:30:03.247Z,67.40
2017-09-11T09:32:31.489Z,65.30
2017-09-11T09:34:58.994Z,65.30
2017-09-11T09:37:27.214Z,64.00
2017-09-11T09:39:54.675Z,63.90
2017-09-11T09:42:22.163Z,64.50
2017-09-11T09:44:49.641Z,63.60
2017-09-11T09:47:17.867Z,66.50
2017-09-11T09:49:45.400Z,66.50
2017-09-11T09:52:12.862Z,63.70
2017-09-11T09:54:40.351Z,63.60
2017-09-11T09:57:07.849Z,64.10
2017-09-11T09:59:35.364Z,64.00
2017-09-11T10:02:02.837Z,65.40
2017-09-11T10:04:30.290Z,64.20
2017-09-11T10:06:57.783Z,65.10
2017-09-11T10:09:25.235Z,64.70
2017-09-11T10:11:52.736Z,64.70
2017-09-11T10:14:20.245Z,64.10
2017-09-11T10:16:47.765Z,64.10
2017-09-11T10:19:15.269Z,63.80
2017-09-11T10:21:42.736Z,64.80
2017-09-11T10:24:10.989Z,64.20
2017-09-11T10:26:38.522Z,64.20
2017-09-11T10:29:05.999Z,65.20
2017-09-11T10:31:33.503Z,65.30
2017-09-11T10:34:01.766Z,65.90
2017-09-11T10:36:29.998Z,65.00
2017-09-11T10:38:57.480Z,65.10
2017-09-11T10:41:24.971Z,65.00
2017-09-11T10:43:53.240Z,64.60
2017-09-11T10:46:21.525Z,63.90
2017-09-11T10:48:49.766Z,64.90
2017-09-11T10:51:17.233Z,64.90
2017-09-11T10:53:44.740Z,63.80
2017-09-11T10:56:12.198Z,64.20
2017-09-11T10:58:39.674Z,63.40
2017-09-11T11:01:07.172Z,64.10
2017-09-11T11:03:35.402Z,63.30
2017-09-11T11:06:02.892Z,63.30
2017-09-11T11:08:30.366Z,63.70
2017-09-11T11:10:58.660Z,63.40
2017-09-11T11:13:26.918Z,64.30
2017-09-11T11:15:54.367Z,64.30
2017-09-11T11:18:22.618Z,64.10
2017-09-11T11:20:50.087Z,64.20
2017-09-11T11:23:17.570Z,62.90
2017-09-11T11:25:45.823Z,63.30
2017-09-11T11:28:13.620Z,63.30
2017-09-11T11:30:41.871Z,64.20
2017-09-11T11:33:09.334Z,64.20
2017-09-11T11:35:36.832Z,64.40
2017-09-11T11:38:05.067Z,63.70
2017-09-11T11:40:32.548Z,63.70
2017-09-11T11:43:00.782Z,63.90
2017-09-11T11:45:28.294Z,63.90
2017-09-11T11:47:56.516Z,63.40
2017-09-11T11:50:23.979Z,63.30
2017-09-11T11:52:51.505Z,63.70
2017-09-11T11:55:18.967Z,63.00
2017-09-11T11:57:46.450Z,63.50
2017-09-11T12:00:13.990Z,63.30
2017-09-11T12:02:42.235Z,63.70
2017-09-11T12:05:10.487Z,63.60
2017-09-11T12:07:37.936Z,63.50
2017-09-11T12:10:05.443Z,64.10
2017-09-11T12:12:33.675Z,63.70
2017-09-11T12:15:01.133Z,63.70
2017-09-11T12:17:28.625Z,63.40
2017-09-11T12:19:56.892Z,64.30
2017-09-11T12:22:25.143Z,62.90
2017-09-11T12:24:52.629Z,62.90
2017-09-11T12:27:20.900Z,63.20
2017-09-11T12:29:49.116Z,64.20
2017-09-11T12:32:16.605Z,64.20
2017-09-11T12:34:44.095Z,63.20
2017-09-11T12:37:12.322Z,63.50
2017-09-11T12:39:39.819Z,63.50
2017-09-11T12:42:08.056Z,64.00
2017-09-11T12:44:35.548Z,64.00
2017-09-11T12:47:03.047Z,63.70
2017-09-11T12:49:31.290Z,65.10
2017-09-11T12:51:58.783Z,65.00
2017-09-11T12:54:27.048Z,64.60
2017-09-11T12:56:55.300Z,63.00
2017-09-11T12:59:23.554Z,63.30
2017-09-11T13:01:51.055Z,63.30
2017-09-11T13:04:19.615Z,62.20
2017-09-11T13:06:47.090Z,62.10
2017-09-11T13:09:15.335Z,59.50
2017-09-11T13:11:42.802Z,59.50
2017-09-11T13:14:10.326Z,58.90
2017-09-11T13:16:37.798Z,60.20
2017-09-11T13:19:05.287Z,59.10
2017-09-11T13:21:33.558Z,60.70
2017-09-11T13:24:01.028Z,60.70
2017-09-11T13:26:28.537Z,61.00
2017-09-11T13:28:56.027Z,62.30
2017-09-11T13:31:23.495Z,63.90
2017-09-11T13:33:51.028Z,64.70
2017-09-11T13:36:18.512Z,64.30
2017-09-11T13:38:46.003Z,64.60
2017-09-11T13:41:13.473Z,64.80
2017-09-11T13:43:40.992Z,64.70
2017-09-11T13:46:08.453Z,64.30
2017-09-11T13:48:35.965Z,63.90
2017-09-11T13:51:03.444Z,64.10
2017-09-11T13:53:30.908Z,63.30
2017-09-11T13:55:58.404Z,64.30
2017-09-11T13:58:26.651Z,63.70
2017-09-11T14:00:54.139Z,63.80
2017-09-11T14:03:22.368Z,64.60
2017-09-11T14:05:49.911Z,64.60
2017-09-11T14:08:17.394Z,63.50
2017-09-11T14:10:44.876Z,63.10
2017-09-11T14:13:12.366Z,63.70
2017-09-11T14:15:39.848Z,61.40
2017-09-11T14:18:07.383Z,62.10
2017-09-11T14:20:35.620Z,62.40
2017-09-11T14:23:03.150Z,62.30
2017-09-11T14:25:30.641Z,62.50
2017-09-11T14:27:58.136Z,62.60
2017-09-11T14:30:26.404Z,64.00
2017-09-11T14:32:54.647Z,63.00
2017-09-11T14:35:22.156Z,63.00
2017-09-11T14:37:49.667Z,63.80
2017-09-11T14:40:17.195Z,63.80
2017-09-11T14:42:44.680Z,63.60
2017-09-11T14:45:12.200Z,63.20
2017-09-11T14:47:39.687Z,63.20
2017-09-11T14:50:38.202Z,62.80
2017-09-11T14:53:05.706Z,63.40
2017-09-11T14:55:33.201Z,63.40
2017-09-11T14:58:00.690Z,63.60
2017-09-11T15:00:28.937Z,63.00
2017-09-11T15:02:56.458Z,63.00
2017-09-11T15:05:24.024Z,63.80
2017-09-11T15:07:51.511Z,63.60
2017-09-11T15:10:19.039Z,62.40
2017-09-11T15:12:46.633Z,62.10
2017-09-11T15:15:14.152Z,61.90
2017-09-11T15:17:41.643Z,61.60
2017-09-11T15:20:09.141Z,61.70
2017-09-11T15:22:36.656Z,60.80
2017-09-11T15:25:04.144Z,61.10
2017-09-11T15:27:31.644Z,60.70
2017-09-11T15:29:59.179Z,57.10
2017-09-11T15:32:26.638Z,55.40
2017-09-11T15:34:54.929Z,51.70
2017-09-11T15:37:23.172Z,49.60
2017-09-11T15:39:50.659Z,49.40
2017-09-11T15:42:18.894Z,45.20
2017-09-11T15:44:46.394Z,45.20
2017-09-11T15:47:14.684Z,43.20
2017-09-11T15:49:42.189Z,42.40
2017-09-11T15:52:09.647Z,34.30
2017-09-11T15:54:37.132Z,34.40
2017-09-11T15:57:04.626Z,32.80
2017-09-11T15:59:32.125Z,33.00
2017-09-11T16:01:59.661Z,32.50
2017-09-11T16:04:27.176Z,33.10
2017-09-11T16:06:55.450Z,32.70
2017-09-11T16:09:23.746Z,33.10
2017-09-11T16:11:51.988Z,33.40
2017-09-11T16:14:19.484Z,33.40
2017-09-11T16:16:46.962Z,32.60
2017-09-11T16:19:14.424Z,32.10
2017-09-11T16:21:42.095Z,31.40
2017-09-11T16:24:09.558Z,31.40
2017-09-11T16:26:37.047Z,31.20
2017-09-11T16:29:04.579Z,30.10
2017-09-11T16:31:32.058Z,30.90
2017-09-11T16:33:59.543Z,30.70
2017-09-11T16:36:27.817Z,30.00
2017-09-11T16:38:56.087Z,30.00
2017-09-11T16:41:25.093Z,29.30
2017-09-11T16:43:53.325Z,29.50
2017-09-11T16:46:20.832Z,29.70
2017-09-11T16:48:49.141Z,29.30
2017-09-11T16:51:16.624Z,29.30
2017-09-11T16:53:44.110Z,29.30
2017-09-11T16:56:12.389Z,29.10
2017-09-11T16:58:40.624Z,29.30
2017-09-11T17:01:08.131Z,29.20
2017-09-11T17:03:36.367Z,29.50
2017-09-11T17:06:03.881Z,29.60
2017-09-11T17:08:31.387Z,29.40
2017-09-11T17:10:58.859Z,29.40
2017-09-11T17:13:26.351Z,29.50
2017-09-11T17:15:54.583Z,29.50
2017-09-11T17:18:22.115Z,29.50
2017-09-11T17:20:49.576Z,29.60
2017-09-11T17:23:17.044Z,30.30
2017-09-11T17:25:44.547Z,30.80
2017-09-11T17:28:12.774Z,30.50
2017-09-11T17:30:40.284Z,30.50
2017-09-11T17:33:08.521Z,30.60
2017-09-11T17:35:36.019Z,30.60
2017-09-11T17:38:03.499Z,30.30
2017-09-11T17:40:31.036Z,30.90
2017-09-11T17:42:59.317Z,31.30
2017-09-11T17:45:27.569Z,33.80
2017-09-11T17:47:56.560Z,35.80
2017-09-11T17:50:24.090Z,35.80
2017-09-11T17:52:51.581Z,37.10
2017-09-11T17:55:19.082Z,39.50
2017-09-11T17:57:46.543Z,40.10
2017-09-11T18:00:14.057Z,40.30
2017-09-11T18:02:41.616Z,42.60
2017-09-11T18:05:09.871Z,50.40
2017-09-11T18:07:37.366Z,50.40
2017-09-11T18:10:05.659Z,56.30
2017-09-11T18:12:33.939Z,60.00
2017-09-11T18:15:02.168Z,55.90
2017-09-11T18:17:29.675Z,55.80
2017-09-11T18:19:57.920Z,60.60
2017-09-11T18:22:25.442Z,60.60
2017-09-11T18:24:52.915Z,61.10
2017-09-11T18:27:20.423Z,61.40
2017-09-11T18:29:48.685Z,62.20
2017-09-11T18:32:16.166Z,62.10
2017-09-11T18:34:44.443Z,62.60
2017-09-11T18:37:12.742Z,63.30
2017-09-11T18:39:40.211Z,63.20
2017-09-11T18:42:07.732Z,63.90
2017-09-11T18:44:35.975Z,63.20
2017-09-11T18:47:03.486Z,63.20
2017-09-11T18:49:30.970Z,64.00
2017-09-11T18:51:58.474Z,64.10
2017-09-11T18:54:26.708Z,62.70
2017-09-11T18:56:54.177Z,62.70
2017-09-11T18:59:21.683Z,62.60
2017-09-11T19:01:49.190Z,63.50
2017-09-11T19:04:16.659Z,64.10
2017-09-11T19:06:44.161Z,65.30
2017-09-11T19:09:11.623Z,65.40
2017-09-11T19:11:39.131Z,65.00
2017-09-11T19:14:06.640Z,65.40
2017-09-11T19:16:34.928Z,66.40
2017-09-11T19:19:02.419Z,66.40
2017-09-11T19:21:29.882Z,66.20
2017-09-11T19:23:57.385Z,66.40
2017-09-11T19:26:25.623Z,66.90
2017-09-11T19:28:53.144Z,66.80
2017-09-11T19:31:20.610Z,66.10
2017-09-11T19:33:48.131Z,66.00
2017-09-11T19:36:16.391Z,65.20
2017-09-11T19:38:43.882Z,65.20
2017-09-11T19:41:11.401Z,64.40
2017-09-11T19:43:38.866Z,65.80
2017-09-11T19:46:06.356Z,65.40
2017-09-11T19:48:34.343Z,65.20
2017-09-11T19:51:01.856Z,65.00
2017-09-11T19:53:29.352Z,66.70
2017-09-11T19:55:56.837Z,67.80
2017-09-11T19:58:24.347Z,69.20
2017-09-11T20:00:52.592Z,71.20
2017-09-11T20:03:20.079Z,71.20
2017-09-11T20:05:48.352Z,69.80
2017-09-11T20:08:16.635Z,68.10
2017-09-11T20:10:44.872Z,68.10
2017-09-11T20:13:12.343Z,68.10
2017-09-11T20:15:40.622Z,69.80
2017-09-11T20:18:08.069Z,69.80
2017-09-11T20:20:35.556Z,70.60
2017-09-11T20:23:04.487Z,71.10
2017-09-11T20:25:31.990Z,71.10
2017-09-11T20:27:59.459Z,70.20
2017-09-11T20:30:26.960Z,72.60
2017-09-11T20:32:54.467Z,73.70
2017-09-11T20:35:22.096Z,75.40
2017-09-11T20:37:49.575Z,73.50
2017-09-11T20:40:17.071Z,74.00
2017-09-11T20:42:45.324Z,73.80
2017-09-11T20:45:12.816Z,73.80
2017-09-11T20:47:40.296Z,73.10
2017-09-11T20:50:07.811Z,73.60
2017-09-11T20:52:35.289Z,71.90
2017-09-11T20:55:03.546Z,69.80
2017-09-11T20:57:31.033Z,69.80
2017-09-11T20:59:58.587Z,68.70
2017-09-11T21:02:26.996Z,68.30
2017-09-11T21:04:54.513Z,68.20
2017-09-11T21:07:22.774Z,68.20
2017-09-11T21:09:50.263Z,68.20
2017-09-11T21:12:17.751Z,67.90
2017-09-11T21:14:45.263Z,68.40
2017-09-11T21:17:13.505Z,70.90
2017-09-11T21:19:41.194Z,70.90
2017-09-11T21:22:08.689Z,74.60
2017-09-11T21:24:36.152Z,75.60
2017-09-11T21:27:03.623Z,77.70
2017-09-11T21:29:31.106Z,78.50
2017-09-11T21:31:58.617Z,76.50
2017-09-11T21:34:26.067Z,73.70
2017-09-11T21:36:53.579Z,75.80
2017-09-11T21:39:21.052Z,76.10
2017-09-11T21:41:48.556Z,73.40
2017-09-11T21:44:16.046Z,72.30
2017-09-11T21:46:43.511Z,71.20
2017-09-11T21:49:11.018Z,70.90
2017-09-11T21:51:39.248Z,77.10
2017-09-11T21:54:06.710Z,77.10
2017-09-11T21:56:34.203Z,80.50
2017-09-11T21:59:02.454Z,75.20
2017-09-11T22:01:29.953Z,75.10
2017-09-11T22:03:57.428Z,73.70
2017-09-11T22:06:24.971Z,73.80
2017-09-11T22:08:52.467Z,73.70
2017-09-11T22:11:19.928Z,72.60
2017-09-11T22:13:47.409Z,72.20
2017-09-11T22:16:14.930Z,71.30
2017-09-11T22:18:42.402Z,71.60
2017-09-11T22:21:09.878Z,72.20
2017-09-11T22:23:37.399Z,71.60
2017-09-11T22:26:04.890Z,71.00
2017-09-11T22:28:32.401Z,71.80
2017-09-11T22:30:59.908Z,76.00
2017-09-11T22:33:27.358Z,76.90
2017-09-11T22:35:54.861Z,77.60
2017-09-11T22:38:23.110Z,81.20
2017-09-11T22:40:50.578Z,81.20
2017-09-11T22:43:18.076Z,76.40
2017-09-11T22:45:45.567Z,74.40
2017-09-11T22:48:13.083Z,79.30
2017-09-11T22:50:40.560Z,79.90
2017-09-11T22:53:08.035Z,80.20
2017-09-11T22:55:35.542Z,77.00
2017-09-11T22:58:03.783Z,73.10
2017-09-11T23:00:31.290Z,73.10
2017-09-11T23:02:59.534Z,72.80
2017-09-11T23:05:26.988Z,72.80
2017-09-11T23:07:54.476Z,74.20
2017-09-11T23:10:22.713Z,81.80
2017-09-11T23:12:50.226Z,81.70
2017-09-11T23:15:17.691Z,83.40
2017-09-11T23:17:46.049Z,84.60
2017-09-11T23:20:14.282Z,83.20
2017-09-11T23:22:41.768Z,83.20
2017-09-11T23:25:09.247Z,80.30
2017-09-11T23:27:36.731Z,79.30
2017-09-11T23:30:04.234Z,77.70
2017-09-11T23:32:31.706Z,75.10
2017-09-11T23:34:59.938Z,75.30
2017-09-11T23:37:27.447Z,75.30
2017-09-11T23:39:55.675Z,75.50
2017-09-11T23:42:23.184Z,75.40
2017-09-11T23:44:51.430Z,73.10
2017-09-11T23:47:18.898Z,73.10
2017-09-11T23:49:46.411Z,73.80
2017-09-11T23:52:13.875Z,74.80
2017-09-11T23:54:41.398Z,73.80
2017-09-11T23:57:09.647Z,73.30
2017-09-11T23:59:38.618Z,72.60
